sensor_id;sensor_type;location;lat;lon;timestamp;P1;durP1;ratioP1;P2;durP2;ratioP2
67514;SDS011;60646;55.802;37.032;2022-08-03T00:01:15;6.97;;;4.75;;
67514;SDS011;60646;55.802;37.032;2022-08-03T00:03:47;6.90;;;4.65;;
67514;SDS011;60646;55.802;37.032;2022-08-03T00:06:17;9.68;;;5.10;;
67514;SDS011;60646;55.802;37.032;2022-08-03T00:08:44;9.38;;;5.53;;
67514;SDS011;60646;55.802;37.032;2022-08-03T00:11:10;11.80;;;5.20;;
67514;SDS011;60646;55.802;37.032;2022-08-03T00:13:36;8.07;;;5.20;;
67514;SDS011;60646;55.802;37.032;2022-08-03T00:16:05;10.25;;;5.30;;
67514;SDS011;60646;55.802;37.032;2022-08-03T00:18:39;9.30;;;5.18;;
67514;SDS011;60646;55.802;37.032;2022-08-03T00:21:05;10.52;;;5.20;;
67514;SDS011;60646;55.802;37.032;2022-08-03T00:23:31;11.77;;;5.03;;
67514;SDS011;60646;55.802;37.032;2022-08-03T00:25:59;6.75;;;4.68;;
67514;SDS011;60646;55.802;37.032;2022-08-03T00:28:25;8.82;;;4.82;;
67514;SDS011;60646;55.802;37.032;2022-08-03T00:30:52;6.47;;;4.55;;
67514;SDS011;60646;55.802;37.032;2022-08-03T00:33:20;8.50;;;4.20;;
67514;SDS011;60646;55.802;37.032;2022-08-03T00:35:47;6.30;;;4.80;;
67514;SDS011;60646;55.802;37.032;2022-08-03T00:38:13;9.60;;;4.57;;
67514;SDS011;60646;55.802;37.032;2022-08-03T00:40:40;6.55;;;4.57;;
67514;SDS011;60646;55.802;37.032;2022-08-03T00:43:07;11.18;;;4.93;;
67514;SDS011;60646;55.802;37.032;2022-08-03T00:45:35;8.32;;;4.47;;
67514;SDS011;60646;55.802;37.032;2022-08-03T00:48:04;7.22;;;4.53;;
67514;SDS011;60646;55.802;37.032;2022-08-03T00:50:33;9.10;;;4.53;;
67514;SDS011;60646;55.802;37.032;2022-08-03T00:53:02;5.65;;;3.88;;
67514;SDS011;60646;55.802;37.032;2022-08-03T00:55:30;6.68;;;4.50;;
67514;SDS011;60646;55.802;37.032;2022-08-03T00:57:56;7.65;;;4.43;;
67514;SDS011;60646;55.802;37.032;2022-08-03T01:00:24;9.68;;;4.40;;
67514;SDS011;60646;55.802;37.032;2022-08-03T01:02:52;8.60;;;4.65;;
67514;SDS011;60646;55.802;37.032;2022-08-03T01:05:19;9.02;;;4.47;;
67514;SDS011;60646;55.802;37.032;2022-08-03T01:07:57;7.53;;;4.47;;
67514;SDS011;60646;55.802;37.032;2022-08-03T01:10:54;6.90;;;4.05;;
67514;SDS011;60646;55.802;37.032;2022-08-03T01:13:56;7.07;;;4.50;;
67514;SDS011;60646;55.802;37.032;2022-08-03T01:16:45;6.05;;;4.15;;
67514;SDS011;60646;55.802;37.032;2022-08-03T01:30:06;6.18;;;3.75;;
67514;SDS011;60646;55.802;37.032;2022-08-03T01:35:15;6.38;;;4.30;;
67514;SDS011;60646;55.802;37.032;2022-08-03T01:37:55;5.55;;;4.15;;
67514;SDS011;60646;55.802;37.032;2022-08-03T01:40:26;5.95;;;4.30;;
67514;SDS011;60646;55.802;37.032;2022-08-03T01:42:54;6.03;;;4.22;;
67514;SDS011;60646;55.802;37.032;2022-08-03T01:45:24;6.78;;;4.55;;
67514;SDS011;60646;55.802;37.032;2022-08-03T01:47:52;5.38;;;3.90;;
67514;SDS011;60646;55.802;37.032;2022-08-03T01:50:21;6.13;;;4.35;;
67514;SDS011;60646;55.802;37.032;2022-08-03T01:52:51;6.22;;;4.50;;
67514;SDS011;60646;55.802;37.032;2022-08-03T01:55:20;5.80;;;4.18;;
67514;SDS011;60646;55.802;37.032;2022-08-03T01:57:48;6.45;;;4.22;;
67514;SDS011;60646;55.802;37.032;2022-08-03T02:00:19;9.90;;;4.65;;
67514;SDS011;60646;55.802;37.032;2022-08-03T02:02:52;7.22;;;4.15;;
67514;SDS011;60646;55.802;37.032;2022-08-03T02:05:22;7.05;;;4.22;;
67514;SDS011;60646;55.802;37.032;2022-08-03T02:07:51;7.03;;;4.60;;
67514;SDS011;60646;55.802;37.032;2022-08-03T02:10:33;5.82;;;3.88;;
67514;SDS011;60646;55.802;37.032;2022-08-03T02:13:03;6.82;;;4.15;;
67514;SDS011;60646;55.802;37.032;2022-08-03T02:15:31;6.03;;;3.75;;
67514;SDS011;60646;55.802;37.032;2022-08-03T02:18:00;5.18;;;3.63;;
67514;SDS011;60646;55.802;37.032;2022-08-03T02:20:31;4.78;;;3.83;;
67514;SDS011;60646;55.802;37.032;2022-08-03T02:23:01;4.88;;;3.90;;
67514;SDS011;60646;55.802;37.032;2022-08-03T02:25:29;7.07;;;4.63;;
67514;SDS011;60646;55.802;37.032;2022-08-03T02:28:14;5.72;;;3.75;;
67514;SDS011;60646;55.802;37.032;2022-08-03T02:30:51;6.45;;;3.90;;
67514;SDS011;60646;55.802;37.032;2022-08-03T02:33:29;5.13;;;3.90;;
67514;SDS011;60646;55.802;37.032;2022-08-03T02:36:10;8.48;;;4.40;;
67514;SDS011;60646;55.802;37.032;2022-08-03T02:38:41;8.68;;;4.60;;
67514;SDS011;60646;55.802;37.032;2022-08-03T02:41:15;5.55;;;4.30;;
67514;SDS011;60646;55.802;37.032;2022-08-03T02:43:48;6.38;;;4.10;;
67514;SDS011;60646;55.802;37.032;2022-08-03T02:46:21;7.43;;;4.72;;
67514;SDS011;60646;55.802;37.032;2022-08-03T02:49:00;5.10;;;4.03;;
67514;SDS011;60646;55.802;37.032;2022-08-03T02:51:35;7.22;;;4.15;;
67514;SDS011;60646;55.802;37.032;2022-08-03T02:54:05;5.35;;;4.00;;
67514;SDS011;60646;55.802;37.032;2022-08-03T02:56:36;7.65;;;4.10;;
67514;SDS011;60646;55.802;37.032;2022-08-03T02:59:06;7.10;;;4.10;;
67514;SDS011;60646;55.802;37.032;2022-08-03T03:01:48;7.28;;;4.55;;
67514;SDS011;60646;55.802;37.032;2022-08-03T03:04:26;6.38;;;4.20;;
67514;SDS011;60646;55.802;37.032;2022-08-03T03:06:57;8.05;;;3.85;;
67514;SDS011;60646;55.802;37.032;2022-08-03T03:09:25;5.07;;;3.65;;
67514;SDS011;60646;55.802;37.032;2022-08-03T03:11:53;8.55;;;4.68;;
67514;SDS011;60646;55.802;37.032;2022-08-03T03:14:25;4.85;;;3.80;;
67514;SDS011;60646;55.802;37.032;2022-08-03T03:16:56;5.43;;;3.70;;
67514;SDS011;60646;55.802;37.032;2022-08-03T03:19:46;6.22;;;4.10;;
67514;SDS011;60646;55.802;37.032;2022-08-03T03:22:15;7.05;;;3.92;;
67514;SDS011;60646;55.802;37.032;2022-08-03T03:24:44;6.75;;;4.03;;
67514;SDS011;60646;55.802;37.032;2022-08-03T03:27:13;5.32;;;4.03;;
67514;SDS011;60646;55.802;37.032;2022-08-03T03:29:40;6.38;;;4.13;;
67514;SDS011;60646;55.802;37.032;2022-08-03T03:32:07;6.32;;;4.53;;
67514;SDS011;60646;55.802;37.032;2022-08-03T03:34:35;6.30;;;4.28;;
67514;SDS011;60646;55.802;37.032;2022-08-03T03:37:04;7.97;;;5.13;;
67514;SDS011;60646;55.802;37.032;2022-08-03T03:39:41;6.57;;;4.43;;
67514;SDS011;60646;55.802;37.032;2022-08-03T03:42:08;7.68;;;4.25;;
67514;SDS011;60646;55.802;37.032;2022-08-03T03:44:39;5.53;;;4.13;;
67514;SDS011;60646;55.802;37.032;2022-08-03T03:47:05;11.43;;;4.57;;
67514;SDS011;60646;55.802;37.032;2022-08-03T03:49:35;4.88;;;4.03;;
67514;SDS011;60646;55.802;37.032;2022-08-03T03:52:18;7.45;;;5.00;;
67514;SDS011;60646;55.802;37.032;2022-08-03T03:54:53;7.30;;;4.43;;
67514;SDS011;60646;55.802;37.032;2022-08-03T03:57:29;5.82;;;4.57;;
67514;SDS011;60646;55.802;37.032;2022-08-03T03:59:57;6.57;;;4.47;;
67514;SDS011;60646;55.802;37.032;2022-08-03T04:02:23;6.30;;;4.40;;
67514;SDS011;60646;55.802;37.032;2022-08-03T04:04:49;9.30;;;4.57;;
67514;SDS011;60646;55.802;37.032;2022-08-03T04:07:59;7.50;;;4.25;;
67514;SDS011;60646;55.802;37.032;2022-08-03T04:13:39;6.07;;;3.67;;
67514;SDS011;60646;55.802;37.032;2022-08-03T04:16:13;9.13;;;4.75;;
67514;SDS011;60646;55.802;37.032;2022-08-03T04:18:50;7.30;;;4.97;;
67514;SDS011;60646;55.802;37.032;2022-08-03T04:21:21;6.15;;;4.40;;
67514;SDS011;60646;55.802;37.032;2022-08-03T04:23:53;7.53;;;4.30;;
67514;SDS011;60646;55.802;37.032;2022-08-03T04:26:24;8.48;;;4.50;;
67514;SDS011;60646;55.802;37.032;2022-08-03T04:28:53;5.80;;;4.95;;
67514;SDS011;60646;55.802;37.032;2022-08-03T04:31:20;8.48;;;5.28;;
67514;SDS011;60646;55.802;37.032;2022-08-03T04:33:50;7.70;;;5.03;;
67514;SDS011;60646;55.802;37.032;2022-08-03T04:36:22;10.32;;;5.50;;
67514;SDS011;60646;55.802;37.032;2022-08-03T04:38:59;9.02;;;4.68;;
67514;SDS011;60646;55.802;37.032;2022-08-03T04:41:27;9.40;;;5.15;;
67514;SDS011;60646;55.802;37.032;2022-08-03T04:43:58;7.83;;;4.67;;
67514;SDS011;60646;55.802;37.032;2022-08-03T04:46:26;9.02;;;4.78;;
67514;SDS011;60646;55.802;37.032;2022-08-03T04:48:55;8.23;;;5.47;;
67514;SDS011;60646;55.802;37.032;2022-08-03T04:51:21;8.60;;;5.28;;
67514;SDS011;60646;55.802;37.032;2022-08-03T04:53:47;8.70;;;5.68;;
67514;SDS011;60646;55.802;37.032;2022-08-03T04:56:14;8.18;;;4.93;;
67514;SDS011;60646;55.802;37.032;2022-08-03T04:59:02;8.68;;;5.07;;
67514;SDS011;60646;55.802;37.032;2022-08-03T05:01:27;7.65;;;5.28;;
67514;SDS011;60646;55.802;37.032;2022-08-03T05:03:54;7.75;;;5.53;;
67514;SDS011;60646;55.802;37.032;2022-08-03T05:06:23;8.55;;;5.63;;
67514;SDS011;60646;55.802;37.032;2022-08-03T05:08:48;12.10;;;6.50;;
67514;SDS011;60646;55.802;37.032;2022-08-03T05:11:33;8.80;;;5.95;;
67514;SDS011;60646;55.802;37.032;2022-08-03T05:13:59;9.90;;;5.78;;
67514;SDS011;60646;55.802;37.032;2022-08-03T05:16:25;8.80;;;5.70;;
67514;SDS011;60646;55.802;37.032;2022-08-03T05:18:51;9.50;;;5.35;;
67514;SDS011;60646;55.802;37.032;2022-08-03T05:21:16;9.63;;;5.82;;
67514;SDS011;60646;55.802;37.032;2022-08-03T05:23:43;7.80;;;5.68;;
67514;SDS011;60646;55.802;37.032;2022-08-03T05:26:09;10.52;;;6.20;;
67514;SDS011;60646;55.802;37.032;2022-08-03T05:28:37;11.70;;;5.35;;
67514;SDS011;60646;55.802;37.032;2022-08-03T05:31:04;9.10;;;5.43;;
67514;SDS011;60646;55.802;37.032;2022-08-03T05:33:30;9.57;;;5.53;;
67514;SDS011;60646;55.802;37.032;2022-08-03T05:35:55;8.98;;;5.45;;
67514;SDS011;60646;55.802;37.032;2022-08-03T05:38:21;10.32;;;6.40;;
67514;SDS011;60646;55.802;37.032;2022-08-03T05:40:49;13.68;;;6.07;;
67514;SDS011;60646;55.802;37.032;2022-08-03T05:43:15;8.02;;;5.05;;
67514;SDS011;60646;55.802;37.032;2022-08-03T05:45:59;6.57;;;4.45;;
67514;SDS011;60646;55.802;37.032;2022-08-03T05:48:25;6.18;;;4.75;;
67514;SDS011;60646;55.802;37.032;2022-08-03T05:50:51;7.13;;;4.78;;
67514;SDS011;60646;55.802;37.032;2022-08-03T05:53:17;9.55;;;5.32;;
67514;SDS011;60646;55.802;37.032;2022-08-03T05:55:43;9.63;;;4.75;;
67514;SDS011;60646;55.802;37.032;2022-08-03T05:58:10;5.68;;;4.10;;
67514;SDS011;60646;55.802;37.032;2022-08-03T06:00:36;5.70;;;4.13;;
67514;SDS011;60646;55.802;37.032;2022-08-03T06:03:02;12.32;;;4.68;;
67514;SDS011;60646;55.802;37.032;2022-08-03T06:05:28;7.20;;;4.38;;
67514;SDS011;60646;55.802;37.032;2022-08-03T06:07:53;5.72;;;3.72;;
67514;SDS011;60646;55.802;37.032;2022-08-03T06:10:19;5.95;;;3.45;;
67514;SDS011;60646;55.802;37.032;2022-08-03T06:12:45;7.03;;;3.63;;
67514;SDS011;60646;55.802;37.032;2022-08-03T06:15:13;7.20;;;3.45;;
67514;SDS011;60646;55.802;37.032;2022-08-03T06:17:43;4.32;;;2.92;;
67514;SDS011;60646;55.802;37.032;2022-08-03T06:20:29;4.15;;;2.95;;
67514;SDS011;60646;55.802;37.032;2022-08-03T06:22:54;4.03;;;3.45;;
67514;SDS011;60646;55.802;37.032;2022-08-03T06:25:21;3.70;;;2.45;;
67514;SDS011;60646;55.802;37.032;2022-08-03T06:27:47;4.72;;;2.88;;
67514;SDS011;60646;55.802;37.032;2022-08-03T06:30:12;5.80;;;2.88;;
67514;SDS011;60646;55.802;37.032;2022-08-03T06:32:39;5.15;;;2.67;;
67514;SDS011;60646;55.802;37.032;2022-08-03T06:35:23;2.92;;;2.35;;
67514;SDS011;60646;55.802;37.032;2022-08-03T06:37:49;4.03;;;2.63;;
67514;SDS011;60646;55.802;37.032;2022-08-03T06:40:17;4.15;;;2.80;;
67514;SDS011;60646;55.802;37.032;2022-08-03T06:42:44;3.78;;;2.92;;
67514;SDS011;60646;55.802;37.032;2022-08-03T06:45:10;3.83;;;2.90;;
67514;SDS011;60646;55.802;37.032;2022-08-03T06:47:37;5.93;;;3.10;;
67514;SDS011;60646;55.802;37.032;2022-08-03T06:50:04;3.67;;;2.95;;
67514;SDS011;60646;55.802;37.032;2022-08-03T06:52:31;3.90;;;2.65;;
67514;SDS011;60646;55.802;37.032;2022-08-03T06:54:56;6.57;;;3.08;;
67514;SDS011;60646;55.802;37.032;2022-08-03T06:57:23;3.80;;;2.88;;
67514;SDS011;60646;55.802;37.032;2022-08-03T06:59:49;3.70;;;2.80;;
67514;SDS011;60646;55.802;37.032;2022-08-03T07:02:15;6.57;;;3.08;;
67514;SDS011;60646;55.802;37.032;2022-08-03T07:04:42;4.35;;;2.60;;
67514;SDS011;60646;55.802;37.032;2022-08-03T07:07:08;3.25;;;2.45;;
67514;SDS011;60646;55.802;37.032;2022-08-03T07:09:34;3.72;;;3.00;;
67514;SDS011;60646;55.802;37.032;2022-08-03T07:12:00;5.25;;;2.90;;
67514;SDS011;60646;55.802;37.032;2022-08-03T07:14:26;5.20;;;2.80;;
67514;SDS011;60646;55.802;37.032;2022-08-03T07:16:52;3.28;;;2.90;;
67514;SDS011;60646;55.802;37.032;2022-08-03T07:19:18;4.25;;;2.83;;
67514;SDS011;60646;55.802;37.032;2022-08-03T07:21:44;4.45;;;2.75;;
67514;SDS011;60646;55.802;37.032;2022-08-03T07:24:10;3.58;;;2.42;;
67514;SDS011;60646;55.802;37.032;2022-08-03T07:26:36;4.60;;;2.35;;
67514;SDS011;60646;55.802;37.032;2022-08-03T07:29:01;2.65;;;2.28;;
67514;SDS011;60646;55.802;37.032;2022-08-03T07:31:28;3.35;;;2.20;;
67514;SDS011;60646;55.802;37.032;2022-08-03T07:33:54;5.72;;;2.65;;
67514;SDS011;60646;55.802;37.032;2022-08-03T07:36:21;3.05;;;2.53;;
67514;SDS011;60646;55.802;37.032;2022-08-03T07:38:47;2.83;;;2.10;;
67514;SDS011;60646;55.802;37.032;2022-08-03T07:41:12;3.35;;;2.13;;
67514;SDS011;60646;55.802;37.032;2022-08-03T07:43:38;2.33;;;1.90;;
67514;SDS011;60646;55.802;37.032;2022-08-03T07:46:04;2.63;;;2.00;;
67514;SDS011;60646;55.802;37.032;2022-08-03T07:48:30;4.15;;;2.70;;
67514;SDS011;60646;55.802;37.032;2022-08-03T07:50:55;3.47;;;2.15;;
67514;SDS011;60646;55.802;37.032;2022-08-03T07:53:21;3.40;;;2.70;;
67514;SDS011;60646;55.802;37.032;2022-08-03T07:55:47;3.65;;;2.40;;
67514;SDS011;60646;55.802;37.032;2022-08-03T07:58:13;4.95;;;2.47;;
67514;SDS011;60646;55.802;37.032;2022-08-03T08:00:42;3.03;;;2.50;;
67514;SDS011;60646;55.802;37.032;2022-08-03T08:03:09;4.13;;;2.67;;
67514;SDS011;60646;55.802;37.032;2022-08-03T08:05:35;4.00;;;2.70;;
67514;SDS011;60646;55.802;37.032;2022-08-03T08:08:19;2.40;;;2.05;;
67514;SDS011;60646;55.802;37.032;2022-08-03T08:10:45;3.05;;;2.58;;
67514;SDS011;60646;55.802;37.032;2022-08-03T08:13:11;4.10;;;2.20;;
67514;SDS011;60646;55.802;37.032;2022-08-03T08:15:37;5.13;;;2.30;;
67514;SDS011;60646;55.802;37.032;2022-08-03T08:18:03;4.03;;;2.25;;
67514;SDS011;60646;55.802;37.032;2022-08-03T08:20:33;5.10;;;2.20;;
67514;SDS011;60646;55.802;37.032;2022-08-03T08:23:18;5.15;;;3.08;;
67514;SDS011;60646;55.802;37.032;2022-08-03T08:25:47;3.45;;;2.50;;
67514;SDS011;60646;55.802;37.032;2022-08-03T08:28:13;3.50;;;2.55;;
67514;SDS011;60646;55.802;37.032;2022-08-03T08:30:41;4.38;;;2.75;;
67514;SDS011;60646;55.802;37.032;2022-08-03T08:33:07;4.32;;;2.67;;
67514;SDS011;60646;55.802;37.032;2022-08-03T08:35:32;3.83;;;2.92;;
67514;SDS011;60646;55.802;37.032;2022-08-03T08:37:58;4.30;;;2.67;;
67514;SDS011;60646;55.802;37.032;2022-08-03T08:40:24;3.15;;;2.30;;
67514;SDS011;60646;55.802;37.032;2022-08-03T08:42:52;3.05;;;2.42;;
67514;SDS011;60646;55.802;37.032;2022-08-03T08:45:18;3.47;;;2.70;;
67514;SDS011;60646;55.802;37.032;2022-08-03T08:47:46;7.47;;;2.88;;
67514;SDS011;60646;55.802;37.032;2022-08-03T08:50:13;2.90;;;2.38;;
67514;SDS011;60646;55.802;37.032;2022-08-03T08:52:45;3.95;;;2.72;;
67514;SDS011;60646;55.802;37.032;2022-08-03T08:55:14;3.33;;;2.17;;
67514;SDS011;60646;55.802;37.032;2022-08-03T08:58:08;5.13;;;2.30;;
67514;SDS011;60646;55.802;37.032;2022-08-03T09:00:35;2.75;;;2.22;;
67514;SDS011;60646;55.802;37.032;2022-08-03T09:03:01;4.78;;;2.55;;
67514;SDS011;60646;55.802;37.032;2022-08-03T09:05:27;3.28;;;2.33;;
67514;SDS011;60646;55.802;37.032;2022-08-03T09:07:57;2.53;;;2.10;;
67514;SDS011;60646;55.802;37.032;2022-08-03T09:10:23;2.90;;;2.30;;
67514;SDS011;60646;55.802;37.032;2022-08-03T09:12:49;3.10;;;2.20;;
67514;SDS011;60646;55.802;37.032;2022-08-03T09:15:23;3.50;;;2.20;;
67514;SDS011;60646;55.802;37.032;2022-08-03T09:17:54;2.90;;;2.30;;
67514;SDS011;60646;55.802;37.032;2022-08-03T09:20:22;3.45;;;2.25;;
67514;SDS011;60646;55.802;37.032;2022-08-03T09:25:40;2.67;;;2.33;;
67514;SDS011;60646;55.802;37.032;2022-08-03T09:28:10;3.00;;;2.20;;
67514;SDS011;60646;55.802;37.032;2022-08-03T09:30:38;12.38;;;5.20;;
67514;SDS011;60646;55.802;37.032;2022-08-03T09:33:05;3.78;;;2.60;;
67514;SDS011;60646;55.802;37.032;2022-08-03T09:35:39;8.60;;;2.90;;
67514;SDS011;60646;55.802;37.032;2022-08-03T09:38:16;4.75;;;2.30;;
67514;SDS011;60646;55.802;37.032;2022-08-03T09:40:44;5.45;;;2.90;;
67514;SDS011;60646;55.802;37.032;2022-08-03T09:43:10;3.13;;;2.40;;
67514;SDS011;60646;55.802;37.032;2022-08-03T09:45:37;3.22;;;2.40;;
67514;SDS011;60646;55.802;37.032;2022-08-03T09:51:12;3.28;;;2.35;;
67514;SDS011;60646;55.802;37.032;2022-08-03T09:53:45;4.63;;;2.15;;
67514;SDS011;60646;55.802;37.032;2022-08-03T09:56:11;2.33;;;2.08;;
67514;SDS011;60646;55.802;37.032;2022-08-03T09:58:44;2.47;;;2.28;;
67514;SDS011;60646;55.802;37.032;2022-08-03T10:01:11;3.55;;;2.20;;
67514;SDS011;60646;55.802;37.032;2022-08-03T10:03:38;2.85;;;2.08;;
67514;SDS011;60646;55.802;37.032;2022-08-03T10:06:15;3.85;;;2.42;;
67514;SDS011;60646;55.802;37.032;2022-08-03T10:08:44;4.65;;;2.53;;
67514;SDS011;60646;55.802;37.032;2022-08-03T10:11:10;3.47;;;2.67;;
67514;SDS011;60646;55.802;37.032;2022-08-03T10:13:36;3.28;;;2.78;;
67514;SDS011;60646;55.802;37.032;2022-08-03T10:16:02;4.60;;;2.78;;
67514;SDS011;60646;55.802;37.032;2022-08-03T10:18:29;3.20;;;2.35;;
67514;SDS011;60646;55.802;37.032;2022-08-03T10:21:00;2.90;;;2.50;;
67514;SDS011;60646;55.802;37.032;2022-08-03T10:23:28;3.75;;;2.55;;
67514;SDS011;60646;55.802;37.032;2022-08-03T10:26:01;4.13;;;2.72;;
67514;SDS011;60646;55.802;37.032;2022-08-03T10:28:36;3.22;;;2.03;;
67514;SDS011;60646;55.802;37.032;2022-08-03T10:31:04;5.15;;;2.53;;
67514;SDS011;60646;55.802;37.032;2022-08-03T10:33:33;3.63;;;2.45;;
67514;SDS011;60646;55.802;37.032;2022-08-03T10:36:04;3.55;;;2.60;;
67514;SDS011;60646;55.802;37.032;2022-08-03T10:38:31;3.85;;;2.35;;
67514;SDS011;60646;55.802;37.032;2022-08-03T10:41:02;2.58;;;2.25;;
67514;SDS011;60646;55.802;37.032;2022-08-03T10:43:35;3.70;;;2.58;;
67514;SDS011;60646;55.802;37.032;2022-08-03T10:46:23;2.30;;;1.77;;
67514;SDS011;60646;55.802;37.032;2022-08-03T10:48:50;3.50;;;2.60;;
67514;SDS011;60646;55.802;37.032;2022-08-03T10:51:18;3.17;;;2.40;;
67514;SDS011;60646;55.802;37.032;2022-08-03T10:53:44;4.00;;;2.58;;
67514;SDS011;60646;55.802;37.032;2022-08-03T10:59:19;3.85;;;2.75;;
67514;SDS011;60646;55.802;37.032;2022-08-03T11:02:10;5.38;;;2.85;;
67514;SDS011;60646;55.802;37.032;2022-08-03T11:04:39;2.88;;;2.58;;
67514;SDS011;60646;55.802;37.032;2022-08-03T11:09:41;3.88;;;2.67;;
67514;SDS011;60646;55.802;37.032;2022-08-03T11:15:03;2.70;;;2.40;;
67514;SDS011;60646;55.802;37.032;2022-08-03T11:17:32;3.20;;;2.60;;
67514;SDS011;60646;55.802;37.032;2022-08-03T11:19:58;6.65;;;2.78;;
67514;SDS011;60646;55.802;37.032;2022-08-03T11:22:25;5.25;;;3.03;;
67514;SDS011;60646;55.802;37.032;2022-08-03T11:25:15;3.53;;;2.60;;
67514;SDS011;60646;55.802;37.032;2022-08-03T11:27:41;4.78;;;2.97;;
67514;SDS011;60646;55.802;37.032;2022-08-03T11:30:16;2.78;;;2.42;;
67514;SDS011;60646;55.802;37.032;2022-08-03T11:32:56;2.97;;;2.70;;
67514;SDS011;60646;55.802;37.032;2022-08-03T11:35:23;2.83;;;2.63;;
67514;SDS011;60646;55.802;37.032;2022-08-03T11:48:26;3.60;;;2.58;;
67514;SDS011;60646;55.802;37.032;2022-08-03T11:51:01;3.20;;;2.42;;
67514;SDS011;60646;55.802;37.032;2022-08-03T11:53:31;3.20;;;2.42;;
67514;SDS011;60646;55.802;37.032;2022-08-03T11:55:58;4.40;;;2.70;;
67514;SDS011;60646;55.802;37.032;2022-08-03T11:58:25;2.85;;;2.58;;
67514;SDS011;60646;55.802;37.032;2022-08-03T12:00:51;3.42;;;2.67;;
67514;SDS011;60646;55.802;37.032;2022-08-03T12:03:18;2.90;;;2.60;;
67514;SDS011;60646;55.802;37.032;2022-08-03T12:08:13;21.73;;;3.00;;
67514;SDS011;60646;55.802;37.032;2022-08-03T12:10:44;16.35;;;3.08;;
67514;SDS011;60646;55.802;37.032;2022-08-03T12:13:12;4.53;;;2.58;;
67514;SDS011;60646;55.802;37.032;2022-08-03T12:15:38;5.20;;;2.78;;
67514;SDS011;60646;55.802;37.032;2022-08-03T12:18:11;3.80;;;2.45;;
67514;SDS011;60646;55.802;37.032;2022-08-03T12:20:42;5.93;;;2.78;;
67514;SDS011;60646;55.802;37.032;2022-08-03T12:23:09;5.10;;;2.40;;
67514;SDS011;60646;55.802;37.032;2022-08-03T12:25:36;3.20;;;2.55;;
67514;SDS011;60646;55.802;37.032;2022-08-03T12:28:07;4.65;;;2.15;;
67514;SDS011;60646;55.802;37.032;2022-08-03T12:30:51;2.75;;;2.38;;
67514;SDS011;60646;55.802;37.032;2022-08-03T12:33:25;3.45;;;2.40;;
67514;SDS011;60646;55.802;37.032;2022-08-03T12:36:03;3.53;;;2.60;;
67514;SDS011;60646;55.802;37.032;2022-08-03T12:38:34;2.70;;;2.35;;
67514;SDS011;60646;55.802;37.032;2022-08-03T12:41:06;3.15;;;2.30;;
67514;SDS011;60646;55.802;37.032;2022-08-03T12:43:47;3.60;;;2.70;;
67514;SDS011;60646;55.802;37.032;2022-08-03T12:46:14;3.53;;;2.50;;
67514;SDS011;60646;55.802;37.032;2022-08-03T12:51:29;2.70;;;2.50;;
67514;SDS011;60646;55.802;37.032;2022-08-03T12:54:00;4.03;;;2.35;;
67514;SDS011;60646;55.802;37.032;2022-08-03T12:56:27;6.03;;;3.05;;
67514;SDS011;60646;55.802;37.032;2022-08-03T12:58:53;3.42;;;3.10;;
67514;SDS011;60646;55.802;37.032;2022-08-03T13:01:18;2.83;;;2.60;;
67514;SDS011;60646;55.802;37.032;2022-08-03T13:03:50;4.07;;;2.92;;
67514;SDS011;60646;55.802;37.032;2022-08-03T13:06:18;2.70;;;2.33;;
67514;SDS011;60646;55.802;37.032;2022-08-03T13:08:46;3.85;;;2.60;;
67514;SDS011;60646;55.802;37.032;2022-08-03T13:11:19;3.00;;;2.70;;
67514;SDS011;60646;55.802;37.032;2022-08-03T13:13:50;4.10;;;2.60;;
67514;SDS011;60646;55.802;37.032;2022-08-03T13:16:17;5.90;;;3.10;;
67514;SDS011;60646;55.802;37.032;2022-08-03T13:18:43;2.42;;;2.22;;
67514;SDS011;60646;55.802;37.032;2022-08-03T13:21:13;3.42;;;2.60;;
67514;SDS011;60646;55.802;37.032;2022-08-03T13:23:45;3.30;;;2.37;;
67514;SDS011;60646;55.802;37.032;2022-08-03T13:26:26;5.00;;;2.63;;
67514;SDS011;60646;55.802;37.032;2022-08-03T13:28:52;4.03;;;2.58;;
67514;SDS011;60646;55.802;37.032;2022-08-03T13:31:17;5.13;;;2.90;;
67514;SDS011;60646;55.802;37.032;2022-08-03T13:33:43;2.92;;;2.55;;
67514;SDS011;60646;55.802;37.032;2022-08-03T13:36:08;2.90;;;2.63;;
67514;SDS011;60646;55.802;37.032;2022-08-03T13:38:34;3.88;;;2.75;;
67514;SDS011;60646;55.802;37.032;2022-08-03T13:41:06;4.28;;;2.60;;
67514;SDS011;60646;55.802;37.032;2022-08-03T13:44:04;7.25;;;2.20;;
67514;SDS011;60646;55.802;37.032;2022-08-03T13:46:29;2.65;;;2.40;;
67514;SDS011;60646;55.802;37.032;2022-08-03T13:48:55;3.08;;;2.78;;
67514;SDS011;60646;55.802;37.032;2022-08-03T13:51:21;3.13;;;2.58;;
67514;SDS011;60646;55.802;37.032;2022-08-03T13:53:48;3.05;;;2.53;;
67514;SDS011;60646;55.802;37.032;2022-08-03T13:56:14;3.80;;;2.70;;
67514;SDS011;60646;55.802;37.032;2022-08-03T13:58:40;5.32;;;2.85;;
67514;SDS011;60646;55.802;37.032;2022-08-03T14:01:49;3.63;;;2.92;;
67514;SDS011;60646;55.802;37.032;2022-08-03T14:04:16;5.63;;;2.97;;
67514;SDS011;60646;55.802;37.032;2022-08-03T14:06:42;15.13;;;3.70;;
67514;SDS011;60646;55.802;37.032;2022-08-03T14:09:11;6.43;;;4.72;;
67514;SDS011;60646;55.802;37.032;2022-08-03T14:11:41;10.82;;;5.72;;
67514;SDS011;60646;55.802;37.032;2022-08-03T14:14:08;5.63;;;4.20;;
67514;SDS011;60646;55.802;37.032;2022-08-03T14:16:34;6.40;;;4.30;;
67514;SDS011;60646;55.802;37.032;2022-08-03T14:19:00;7.65;;;4.00;;
67514;SDS011;60646;55.802;37.032;2022-08-03T14:21:25;8.68;;;3.70;;
67514;SDS011;60646;55.802;37.032;2022-08-03T14:23:51;4.70;;;3.17;;
67514;SDS011;60646;55.802;37.032;2022-08-03T14:26:29;3.40;;;3.00;;
67514;SDS011;60646;55.802;37.032;2022-08-03T14:29:04;4.95;;;3.05;;
67514;SDS011;60646;55.802;37.032;2022-08-03T14:31:30;2.88;;;2.53;;
67514;SDS011;60646;55.802;37.032;2022-08-03T14:33:56;3.20;;;2.70;;
67514;SDS011;60646;55.802;37.032;2022-08-03T14:36:25;3.30;;;2.70;;
67514;SDS011;60646;55.802;37.032;2022-08-03T14:38:50;4.55;;;3.20;;
67514;SDS011;60646;55.802;37.032;2022-08-03T14:41:20;4.57;;;3.10;;
67514;SDS011;60646;55.802;37.032;2022-08-03T14:43:46;3.70;;;2.97;;
67514;SDS011;60646;55.802;37.032;2022-08-03T14:46:12;6.95;;;2.97;;
67514;SDS011;60646;55.802;37.032;2022-08-03T14:48:38;3.83;;;2.78;;
67514;SDS011;60646;55.802;37.032;2022-08-03T14:51:28;3.45;;;2.60;;
67514;SDS011;60646;55.802;37.032;2022-08-03T14:53:54;3.30;;;2.75;;
67514;SDS011;60646;55.802;37.032;2022-08-03T14:56:22;4.18;;;2.42;;
67514;SDS011;60646;55.802;37.032;2022-08-03T14:58:48;7.60;;;3.10;;
67514;SDS011;60646;55.802;37.032;2022-08-03T15:01:13;2.90;;;2.60;;
67514;SDS011;60646;55.802;37.032;2022-08-03T15:03:39;3.42;;;2.88;;
67514;SDS011;60646;55.802;37.032;2022-08-03T15:06:05;4.75;;;2.63;;
67514;SDS011;60646;55.802;37.032;2022-08-03T15:08:31;3.20;;;2.50;;
67514;SDS011;60646;55.802;37.032;2022-08-03T15:10:56;4.10;;;2.58;;
67514;SDS011;60646;55.802;37.032;2022-08-03T15:13:22;6.65;;;3.08;;
67514;SDS011;60646;55.802;37.032;2022-08-03T15:15:49;8.13;;;3.03;;
67514;SDS011;60646;55.802;37.032;2022-08-03T15:18:16;10.85;;;3.55;;
67514;SDS011;60646;55.802;37.032;2022-08-03T15:20:42;8.73;;;3.15;;
67514;SDS011;60646;55.802;37.032;2022-08-03T15:23:07;7.72;;;3.25;;
67514;SDS011;60646;55.802;37.032;2022-08-03T15:25:33;5.30;;;2.85;;
67514;SDS011;60646;55.802;37.032;2022-08-03T15:28:02;4.50;;;3.22;;
67514;SDS011;60646;55.802;37.032;2022-08-03T15:30:28;7.30;;;3.35;;
67514;SDS011;60646;55.802;37.032;2022-08-03T15:32:55;9.75;;;3.03;;
67514;SDS011;60646;55.802;37.032;2022-08-03T15:35:21;5.70;;;3.53;;